Sioux Lookout, Canada
Current Conditions -  °F | °C
As of 9:00 AM on Thursday 30 Oct 2014 (Local Time) from CYXL Reporting Station
Snow Showers Snow Showers  
Wind Chill: 24°   Ceiling: 3200
Heat Index: 32°   Visibility: 15mi
Dew Point: 28°   Wind: 10mph
Humidity: 87%   Direction: 340°NNW
Pressure: 30.05"   Gusts: 17mph
Location:  50.1°N, 91.92°W
Report Text: CYXL 301400Z 34009G15KT 15SM -SHSN SCT012 BKN032 OVC070 00/M02 A3005 RMK CU3SC3AC2 SLP196
Loading
Personal Weather Stations






























Interactive Weather Map
Tropical Storm Tracking
New forecast layout! Learn more

10-Day Weather Forecast

Advertisements
Track Severe Weather on mobile